sensor_id;sensor_type;location;lat;lon;timestamp;pressure;altitude;pressure_sealevel;temperature;humidity
44453;BME280;30155;52.164;21.236;2023-04-23T00:00:40;100315.90;;;6.72;59.98
44453;BME280;30155;52.164;21.236;2023-04-23T00:05:35;100314.79;;;6.69;60.12
44453;BME280;30155;52.164;21.236;2023-04-23T00:10:28;100311.17;;;6.62;60.20
44453;BME280;30155;52.164;21.236;2023-04-23T00:15:21;100309.42;;;6.55;60.40
44453;BME280;30155;52.164;21.236;2023-04-23T00:20:14;100306.58;;;6.52;60.44
44453;BME280;30155;52.164;21.236;2023-04-23T00:25:09;100301.98;;;6.46;60.61
44453;BME280;30155;52.164;21.236;2023-04-23T00:30:02;100304.03;;;6.40;60.68
44453;BME280;30155;52.164;21.236;2023-04-23T00:34:56;100301.84;;;6.35;60.88
44453;BME280;30155;52.164;21.236;2023-04-23T00:39:48;100301.59;;;6.33;60.96
44453;BME280;30155;52.164;21.236;2023-04-23T00:44:41;100298.30;;;6.25;61.08
44453;BME280;30155;52.164;21.236;2023-04-23T00:49:35;100295.18;;;6.19;61.10
44453;BME280;30155;52.164;21.236;2023-04-23T00:54:29;100298.59;;;6.11;61.34
44453;BME280;30155;52.164;21.236;2023-04-23T00:59:25;100301.29;;;6.08;61.60
44453;BME280;30155;52.164;21.236;2023-04-23T01:04:19;100295.21;;;6.07;61.61
44453;BME280;30155;52.164;21.236;2023-04-23T01:09:13;100294.70;;;6.01;61.84
44453;BME280;30155;52.164;21.236;2023-04-23T01:14:09;100297.31;;;5.97;61.84
44453;BME280;30155;52.164;21.236;2023-04-23T01:19:03;100299.90;;;5.92;62.04
44453;BME280;30155;52.164;21.236;2023-04-23T01:23:56;100303.35;;;5.86;62.12
44453;BME280;30155;52.164;21.236;2023-04-23T01:28:49;100301.12;;;5.80;62.26
44453;BME280;30155;52.164;21.236;2023-04-23T01:33:42;100300.55;;;5.73;62.30
44453;BME280;30155;52.164;21.236;2023-04-23T01:38:36;100296.45;;;5.68;62.51
44453;BME280;30155;52.164;21.236;2023-04-23T01:43:30;100300.90;;;5.62;62.61
44453;BME280;30155;52.164;21.236;2023-04-23T01:48:24;100301.52;;;5.53;62.77
44453;BME280;30155;52.164;21.236;2023-04-23T01:53:17;100299.73;;;5.51;63.10
44453;BME280;30155;52.164;21.236;2023-04-23T01:58:10;100298.32;;;5.50;63.03
44453;BME280;30155;52.164;21.236;2023-04-23T02:03:02;100295.76;;;5.45;63.21
44453;BME280;30155;52.164;21.236;2023-04-23T02:07:56;100301.30;;;5.41;63.17
44453;BME280;30155;52.164;21.236;2023-04-23T02:12:49;100300.41;;;5.34;63.41
44453;BME280;30155;52.164;21.236;2023-04-23T02:17:42;100301.70;;;5.27;63.56
44453;BME280;30155;52.164;21.236;2023-04-23T02:22:38;100296.74;;;5.22;63.77
44453;BME280;30155;52.164;21.236;2023-04-23T02:27:31;100297.27;;;5.17;63.87
44453;BME280;30155;52.164;21.236;2023-04-23T02:32:24;100298.83;;;5.17;63.99
44453;BME280;30155;52.164;21.236;2023-04-23T02:37:18;100295.93;;;5.18;64.15
44453;BME280;30155;52.164;21.236;2023-04-23T02:42:12;100295.54;;;5.16;64.07
44453;BME280;30155;52.164;21.236;2023-04-23T02:47:04;100291.41;;;5.10;63.88
44453;BME280;30155;52.164;21.236;2023-04-23T02:51:57;100290.40;;;5.01;63.98
44453;BME280;30155;52.164;21.236;2023-04-23T02:56:50;100291.34;;;4.92;64.40
44453;BME280;30155;52.164;21.236;2023-04-23T03:01:43;100296.43;;;4.86;64.47
44453;BME280;30155;52.164;21.236;2023-04-23T03:06:36;100296.14;;;4.82;64.64
44453;BME280;30155;52.164;21.236;2023-04-23T03:11:30;100298.07;;;4.78;64.62
44453;BME280;30155;52.164;21.236;2023-04-23T03:16:22;100296.52;;;4.73;64.93
44453;BME280;30155;52.164;21.236;2023-04-23T03:21:16;100296.05;;;4.69;64.79
44453;BME280;30155;52.164;21.236;2023-04-23T03:26:10;100294.01;;;4.65;64.82
44453;BME280;30155;52.164;21.236;2023-04-23T03:31:02;100293.44;;;4.63;65.07
44453;BME280;30155;52.164;21.236;2023-04-23T03:35:55;100294.27;;;4.62;65.04
44453;BME280;30155;52.164;21.236;2023-04-23T03:40:51;100288.81;;;4.58;65.25
44453;BME280;30155;52.164;21.236;2023-04-23T03:45:44;100288.11;;;4.57;65.31
44453;BME280;30155;52.164;21.236;2023-04-23T03:50:37;100291.88;;;4.63;65.50
44453;BME280;30155;52.164;21.236;2023-04-23T03:55:42;100289.00;;;4.64;65.37
44453;BME280;30155;52.164;21.236;2023-04-23T04:00:36;100290.86;;;4.78;65.44
44453;BME280;30155;52.164;21.236;2023-04-23T04:05:28;100290.70;;;5.26;65.28
44453;BME280;30155;52.164;21.236;2023-04-23T04:10:21;100290.52;;;5.59;64.73
44453;BME280;30155;52.164;21.236;2023-04-23T04:15:14;100291.84;;;5.69;64.60
44453;BME280;30155;52.164;21.236;2023-04-23T04:20:10;100289.21;;;5.73;64.41
44453;BME280;30155;52.164;21.236;2023-04-23T04:25:03;100289.90;;;5.62;64.55
44453;BME280;30155;52.164;21.236;2023-04-23T04:29:57;100288.69;;;5.55;64.70
44453;BME280;30155;52.164;21.236;2023-04-23T04:34:49;100287.86;;;5.51;64.85
44453;BME280;30155;52.164;21.236;2023-04-23T04:39:43;100283.33;;;5.55;64.75
44453;BME280;30155;52.164;21.236;2023-04-23T04:44:35;100286.58;;;5.54;64.91
44453;BME280;30155;52.164;21.236;2023-04-23T04:49:29;100288.12;;;5.54;65.23
44453;BME280;30155;52.164;21.236;2023-04-23T04:54:23;100291.23;;;5.60;65.32
44453;BME280;30155;52.164;21.236;2023-04-23T04:59:15;100290.42;;;5.74;65.35
44453;BME280;30155;52.164;21.236;2023-04-23T05:04:08;100291.46;;;5.80;65.40
44453;BME280;30155;52.164;21.236;2023-04-23T05:09:02;100288.75;;;5.87;65.62
44453;BME280;30155;52.164;21.236;2023-04-23T05:13:55;100293.80;;;6.00;65.81
44453;BME280;30155;52.164;21.236;2023-04-23T05:18:48;100290.95;;;6.15;66.10
44453;BME280;30155;52.164;21.236;2023-04-23T05:23:41;100290.39;;;6.32;66.19
44453;BME280;30155;52.164;21.236;2023-04-23T05:28:34;100286.94;;;6.50;66.31
44453;BME280;30155;52.164;21.236;2023-04-23T05:33:28;100280.55;;;6.71;66.62
44453;BME280;30155;52.164;21.236;2023-04-23T05:38:33;100280.60;;;7.00;66.63
44453;BME280;30155;52.164;21.236;2023-04-23T05:43:25;100282.99;;;7.28;66.65
44453;BME280;30155;52.164;21.236;2023-04-23T05:48:18;100280.31;;;7.62;66.29
44453;BME280;30155;52.164;21.236;2023-04-23T05:53:11;100275.70;;;8.14;65.92
44453;BME280;30155;52.164;21.236;2023-04-23T05:58:04;100274.93;;;8.46;65.36
44453;BME280;30155;52.164;21.236;2023-04-23T06:02:56;100264.92;;;8.74;65.27
44453;BME280;30155;52.164;21.236;2023-04-23T06:07:50;100264.03;;;9.04;64.48
44453;BME280;30155;52.164;21.236;2023-04-23T06:12:43;100262.15;;;9.53;63.49
44453;BME280;30155;52.164;21.236;2023-04-23T06:17:36;100258.52;;;10.37;62.34
44453;BME280;30155;52.164;21.236;2023-04-23T06:22:29;100258.86;;;11.15;60.67
44453;BME280;30155;52.164;21.236;2023-04-23T06:27:22;100259.94;;;11.76;59.92
44453;BME280;30155;52.164;21.236;2023-04-23T06:32:15;100251.64;;;12.23;58.83
44453;BME280;30155;52.164;21.236;2023-04-23T06:37:10;100248.90;;;12.43;58.22
44453;BME280;30155;52.164;21.236;2023-04-23T06:42:03;100248.60;;;12.73;57.27
44453;BME280;30155;52.164;21.236;2023-04-23T06:46:58;100242.38;;;14.36;54.75
44453;BME280;30155;52.164;21.236;2023-04-23T06:51:52;100233.55;;;17.26;50.75
44453;BME280;30155;52.164;21.236;2023-04-23T06:56:48;100229.44;;;20.43;46.93
44453;BME280;30155;52.164;21.236;2023-04-23T07:01:41;100216.36;;;22.11;43.75
44453;BME280;30155;52.164;21.236;2023-04-23T07:06:34;100215.77;;;22.44;42.24
44453;BME280;30155;52.164;21.236;2023-04-23T07:11:27;100221.14;;;22.47;40.42
44453;BME280;30155;52.164;21.236;2023-04-23T07:16:22;100219.73;;;24.56;37.95
44453;BME280;30155;52.164;21.236;2023-04-23T07:21:16;100214.48;;;26.93;34.68
44453;BME280;30155;52.164;21.236;2023-04-23T07:26:09;100212.90;;;28.85;32.94
44453;BME280;30155;52.164;21.236;2023-04-23T07:31:02;100210.83;;;31.04;30.62
44453;BME280;30155;52.164;21.236;2023-04-23T07:35:55;100209.33;;;33.06;28.15
44453;BME280;30155;52.164;21.236;2023-04-23T07:40:47;100205.87;;;32.59;26.79
44453;BME280;30155;52.164;21.236;2023-04-23T07:45:40;100199.11;;;31.55;26.25
44453;BME280;30155;52.164;21.236;2023-04-23T07:50:33;100197.29;;;31.34;25.61
44453;BME280;30155;52.164;21.236;2023-04-23T07:55:26;100197.36;;;31.49;25.72
44453;BME280;30155;52.164;21.236;2023-04-23T08:00:19;100192.04;;;32.60;24.79
44453;BME280;30155;52.164;21.236;2023-04-23T08:05:12;100189.83;;;33.08;24.09
44453;BME280;30155;52.164;21.236;2023-04-23T08:10:05;100193.59;;;32.30;24.02
44453;BME280;30155;52.164;21.236;2023-04-23T08:14:58;100189.98;;;30.11;24.17
44453;BME280;30155;52.164;21.236;2023-04-23T08:19:59;100188.30;;;29.12;24.99
44453;BME280;30155;52.164;21.236;2023-04-23T08:24:52;100184.03;;;29.02;25.08
44453;BME280;30155;52.164;21.236;2023-04-23T08:29:45;100178.92;;;29.40;24.70
44453;BME280;30155;52.164;21.236;2023-04-23T08:34:38;100170.41;;;30.26;23.50
44453;BME280;30155;52.164;21.236;2023-04-23T08:39:33;100176.23;;;29.68;24.87
44453;BME280;30155;52.164;21.236;2023-04-23T08:44:26;100174.35;;;29.20;23.86
44453;BME280;30155;52.164;21.236;2023-04-23T08:49:19;100165.55;;;28.23;24.76
44453;BME280;30155;52.164;21.236;2023-04-23T08:54:18;100165.61;;;28.99;24.44
44453;BME280;30155;52.164;21.236;2023-04-23T08:59:11;100161.95;;;29.55;22.68
44453;BME280;30155;52.164;21.236;2023-04-23T09:04:03;100156.15;;;28.70;23.05
44453;BME280;30155;52.164;21.236;2023-04-23T09:09:00;100158.31;;;28.70;23.21
44453;BME280;30155;52.164;21.236;2023-04-23T09:13:55;100152.09;;;28.90;22.82
44453;BME280;30155;52.164;21.236;2023-04-23T09:18:49;100149.73;;;29.43;22.04
44453;BME280;30155;52.164;21.236;2023-04-23T09:23:43;100147.09;;;28.91;22.12
44453;BME280;30155;52.164;21.236;2023-04-23T09:28:38;100141.75;;;29.58;21.82
44453;BME280;30155;52.164;21.236;2023-04-23T09:33:33;100141.80;;;30.18;21.18
44453;BME280;30155;52.164;21.236;2023-04-23T09:38:26;100140.65;;;31.74;20.23
44453;BME280;30155;52.164;21.236;2023-04-23T09:43:19;100136.23;;;31.28;20.36
44453;BME280;30155;52.164;21.236;2023-04-23T09:48:12;100132.52;;;30.92;20.90
44453;BME280;30155;52.164;21.236;2023-04-23T09:53:06;100126.16;;;31.55;19.58
44453;BME280;30155;52.164;21.236;2023-04-23T09:57:59;100126.42;;;33.05;19.41
44453;BME280;30155;52.164;21.236;2023-04-23T10:02:52;100121.55;;;34.68;17.95
44453;BME280;30155;52.164;21.236;2023-04-23T10:07:46;100112.33;;;35.78;17.23
44453;BME280;30155;52.164;21.236;2023-04-23T10:12:40;100110.84;;;36.70;16.76
44453;BME280;30155;52.164;21.236;2023-04-23T10:17:45;100105.57;;;36.90;15.71
44453;BME280;30155;52.164;21.236;2023-04-23T10:22:39;100094.80;;;37.12;16.24
44453;BME280;30155;52.164;21.236;2023-04-23T10:27:44;100086.80;;;37.74;16.00
44453;BME280;30155;52.164;21.236;2023-04-23T10:32:45;100092.82;;;37.99;15.58
44453;BME280;30155;52.164;21.236;2023-04-23T10:37:40;100082.55;;;37.97;15.90
44453;BME280;30155;52.164;21.236;2023-04-23T10:42:33;100075.38;;;37.63;15.40
44453;BME280;30155;52.164;21.236;2023-04-23T10:47:26;100069.93;;;37.38;16.10
44453;BME280;30155;52.164;21.236;2023-04-23T10:52:19;100065.82;;;37.63;16.26
44453;BME280;30155;52.164;21.236;2023-04-23T10:57:16;100065.84;;;37.13;15.94
44453;BME280;30155;52.164;21.236;2023-04-23T11:02:10;100057.13;;;36.75;16.19
44453;BME280;30155;52.164;21.236;2023-04-23T11:07:07;100048.61;;;36.54;16.69
44453;BME280;30155;52.164;21.236;2023-04-23T11:12:01;100044.80;;;36.48;16.31
44453;BME280;30155;52.164;21.236;2023-04-23T11:16:54;100042.86;;;35.90;16.33
44453;BME280;30155;52.164;21.236;2023-04-23T11:21:57;100041.88;;;35.39;16.53
44453;BME280;30155;52.164;21.236;2023-04-23T11:26:50;100037.17;;;34.97;17.13
44453;BME280;30155;52.164;21.236;2023-04-23T11:31:46;100031.61;;;34.35;16.69
44453;BME280;30155;52.164;21.236;2023-04-23T11:36:53;100024.79;;;33.47;17.27
44453;BME280;30155;52.164;21.236;2023-04-23T11:41:47;100027.83;;;32.01;17.95
44453;BME280;30155;52.164;21.236;2023-04-23T11:46:40;100032.64;;;30.63;18.65
44453;BME280;30155;52.164;21.236;2023-04-23T11:51:33;100019.95;;;29.43;19.82
44453;BME280;30155;52.164;21.236;2023-04-23T11:56:28;100015.02;;;29.00;20.75
44453;BME280;30155;52.164;21.236;2023-04-23T12:01:21;100012.33;;;28.64;20.81
44453;BME280;30155;52.164;21.236;2023-04-23T12:06:16;100013.92;;;28.25;21.22
44453;BME280;30155;52.164;21.236;2023-04-23T12:11:10;100008.48;;;28.19;21.66
44453;BME280;30155;52.164;21.236;2023-04-23T12:16:03;100007.15;;;28.12;21.43
44453;BME280;30155;52.164;21.236;2023-04-23T12:25:58;100001.55;;;27.78;21.43
44453;BME280;30155;52.164;21.236;2023-04-23T12:30:51;99993.96;;;27.53;21.47
44453;BME280;30155;52.164;21.236;2023-04-23T12:35:44;99988.42;;;27.33;22.12
44453;BME280;30155;52.164;21.236;2023-04-23T12:40:38;99976.41;;;27.44;21.91
44453;BME280;30155;52.164;21.236;2023-04-23T12:45:35;99970.54;;;27.32;22.05
44453;BME280;30155;52.164;21.236;2023-04-23T12:50:28;99971.04;;;27.24;21.92
44453;BME280;30155;52.164;21.236;2023-04-23T12:55:21;99971.08;;;27.13;22.19
44453;BME280;30155;52.164;21.236;2023-04-23T13:00:14;99962.05;;;27.06;21.72
44453;BME280;30155;52.164;21.236;2023-04-23T13:05:07;99959.77;;;27.06;22.21
44453;BME280;30155;52.164;21.236;2023-04-23T13:10:00;99948.53;;;27.07;21.95
44453;BME280;30155;52.164;21.236;2023-04-23T13:14:53;99946.34;;;27.05;22.02
44453;BME280;30155;52.164;21.236;2023-04-23T13:19:46;99940.09;;;26.99;22.24
44453;BME280;30155;52.164;21.236;2023-04-23T13:24:39;99928.02;;;26.93;22.24
44453;BME280;30155;52.164;21.236;2023-04-23T13:29:31;99923.05;;;26.88;22.25
44453;BME280;30155;52.164;21.236;2023-04-23T13:34:24;99915.73;;;26.85;22.30
44453;BME280;30155;52.164;21.236;2023-04-23T13:39:17;99917.87;;;26.88;22.53
44453;BME280;30155;52.164;21.236;2023-04-23T13:44:10;99910.57;;;26.68;22.34
44453;BME280;30155;52.164;21.236;2023-04-23T13:49:04;99908.99;;;26.65;22.41
44453;BME280;30155;52.164;21.236;2023-04-23T13:53:57;99899.81;;;26.70;22.50
44453;BME280;30155;52.164;21.236;2023-04-23T13:58:50;99888.23;;;26.50;22.27
44453;BME280;30155;52.164;21.236;2023-04-23T14:03:43;99884.81;;;26.56;22.49
44453;BME280;30155;52.164;21.236;2023-04-23T14:08:37;99876.13;;;26.50;22.41
44453;BME280;30155;52.164;21.236;2023-04-23T14:13:30;99872.36;;;26.53;23.12
44453;BME280;30155;52.164;21.236;2023-04-23T14:18:24;99872.33;;;26.51;22.64
44453;BME280;30155;52.164;21.236;2023-04-23T14:33:15;99861.48;;;26.06;22.88
44453;BME280;30155;52.164;21.236;2023-04-23T14:38:08;99859.55;;;26.05;23.28
44453;BME280;30155;52.164;21.236;2023-04-23T14:43:01;99856.62;;;25.91;22.89
44453;BME280;30155;52.164;21.236;2023-04-23T14:48:05;99857.59;;;25.84;23.05
44453;BME280;30155;52.164;21.236;2023-04-23T14:52:58;99853.52;;;25.66;22.92
44453;BME280;30155;52.164;21.236;2023-04-23T14:57:53;99854.79;;;25.47;22.92
44453;BME280;30155;52.164;21.236;2023-04-23T15:02:46;99849.05;;;25.36;23.48
44453;BME280;30155;52.164;21.236;2023-04-23T15:07:39;99847.81;;;25.45;23.68
44453;BME280;30155;52.164;21.236;2023-04-23T15:12:36;99845.81;;;25.40;23.34
44453;BME280;30155;52.164;21.236;2023-04-23T15:17:30;99842.77;;;25.25;23.56
44453;BME280;30155;52.164;21.236;2023-04-23T15:22:23;99832.20;;;25.14;23.57
44453;BME280;30155;52.164;21.236;2023-04-23T15:27:16;99833.34;;;25.07;23.67
44453;BME280;30155;52.164;21.236;2023-04-23T15:32:09;99831.66;;;25.05;24.02
44453;BME280;30155;52.164;21.236;2023-04-23T15:37:02;99832.96;;;24.85;23.85
44453;BME280;30155;52.164;21.236;2023-04-23T15:41:55;99829.58;;;24.69;23.96
44453;BME280;30155;52.164;21.236;2023-04-23T15:46:48;99821.23;;;24.57;24.26
44453;BME280;30155;52.164;21.236;2023-04-23T15:51:41;99817.70;;;24.40;24.31
44453;BME280;30155;52.164;21.236;2023-04-23T15:56:34;99813.61;;;24.31;24.60
44453;BME280;30155;52.164;21.236;2023-04-23T16:01:28;99806.64;;;24.19;24.73
44453;BME280;30155;52.164;21.236;2023-04-23T16:06:21;99806.61;;;24.03;24.80
44453;BME280;30155;52.164;21.236;2023-04-23T16:11:14;99802.42;;;23.81;25.28
44453;BME280;30155;52.164;21.236;2023-04-23T16:16:07;99805.96;;;23.64;25.64
44453;BME280;30155;52.164;21.236;2023-04-23T16:21:00;99804.02;;;23.50;25.73
44453;BME280;30155;52.164;21.236;2023-04-23T16:25:53;99806.66;;;23.36;26.25
44453;BME280;30155;52.164;21.236;2023-04-23T16:30:47;99803.88;;;23.17;26.62
44453;BME280;30155;52.164;21.236;2023-04-23T16:35:41;99802.36;;;22.94;26.70
44453;BME280;30155;52.164;21.236;2023-04-23T16:40:34;99797.55;;;22.69;26.79
44453;BME280;30155;52.164;21.236;2023-04-23T16:45:26;99798.57;;;22.51;27.44
44453;BME280;30155;52.164;21.236;2023-04-23T16:50:19;99799.33;;;22.27;27.83
44453;BME280;30155;52.164;21.236;2023-04-23T16:55:13;99790.42;;;21.97;28.90
44453;BME280;30155;52.164;21.236;2023-04-23T17:00:07;99787.13;;;21.56;29.30
44453;BME280;30155;52.164;21.236;2023-04-23T17:05:00;99791.91;;;21.17;30.07
44453;BME280;30155;52.164;21.236;2023-04-23T17:09:53;99794.25;;;20.80;30.57
44453;BME280;30155;52.164;21.236;2023-04-23T17:14:46;99787.80;;;20.42;31.40
44453;BME280;30155;52.164;21.236;2023-04-23T17:19:39;99792.77;;;20.08;31.97
44453;BME280;30155;52.164;21.236;2023-04-23T17:24:32;99785.84;;;19.76;32.69
44453;BME280;30155;52.164;21.236;2023-04-23T17:29:27;99783.91;;;19.44;32.85
44453;BME280;30155;52.164;21.236;2023-04-23T17:34:20;99782.31;;;19.14;33.50
44453;BME280;30155;52.164;21.236;2023-04-23T17:39:13;99790.61;;;18.85;33.96
44453;BME280;30155;52.164;21.236;2023-04-23T17:44:10;99784.27;;;18.57;34.36
44453;BME280;30155;52.164;21.236;2023-04-23T17:49:02;99784.44;;;18.28;35.05
44453;BME280;30155;52.164;21.236;2023-04-23T17:53:55;99784.28;;;18.03;35.47
44453;BME280;30155;52.164;21.236;2023-04-23T17:58:50;99781.95;;;17.79;35.74
44453;BME280;30155;52.164;21.236;2023-04-23T18:03:43;99779.67;;;17.53;36.19
44453;BME280;30155;52.164;21.236;2023-04-23T18:08:38;99782.55;;;17.29;36.78
44453;BME280;30155;52.164;21.236;2023-04-23T18:13:35;99789.77;;;17.07;36.82
44453;BME280;30155;52.164;21.236;2023-04-23T18:18:29;99790.66;;;16.84;37.26
44453;BME280;30155;52.164;21.236;2023-04-23T18:23:23;99791.50;;;16.61;37.70
44453;BME280;30155;52.164;21.236;2023-04-23T18:28:16;99793.20;;;16.40;38.09
44453;BME280;30155;52.164;21.236;2023-04-23T18:33:22;99796.60;;;16.20;38.43
44453;BME280;30155;52.164;21.236;2023-04-23T18:38:24;99795.58;;;16.01;38.80
44453;BME280;30155;52.164;21.236;2023-04-23T18:43:22;99793.28;;;15.84;39.39
44453;BME280;30155;52.164;21.236;2023-04-23T18:53:24;99791.29;;;15.49;40.04
44453;BME280;30155;52.164;21.236;2023-04-23T18:58:17;99795.42;;;15.32;40.44
44453;BME280;30155;52.164;21.236;2023-04-23T19:03:10;99795.18;;;15.15;40.54
44453;BME280;30155;52.164;21.236;2023-04-23T19:08:17;99796.11;;;15.01;40.84
44453;BME280;30155;52.164;21.236;2023-04-23T19:13:10;99796.51;;;14.86;41.22
44453;BME280;30155;52.164;21.236;2023-04-23T19:18:03;99796.02;;;14.73;41.43
44453;BME280;30155;52.164;21.236;2023-04-23T19:22:56;99790.96;;;14.58;41.63
44453;BME280;30155;52.164;21.236;2023-04-23T19:27:49;99792.36;;;14.45;42.09
44453;BME280;30155;52.164;21.236;2023-04-23T19:32:42;99788.02;;;14.30;42.45
44453;BME280;30155;52.164;21.236;2023-04-23T19:37:35;99785.41;;;14.17;42.70
44453;BME280;30155;52.164;21.236;2023-04-23T19:42:27;99782.09;;;14.03;42.81
44453;BME280;30155;52.164;21.236;2023-04-23T19:47:22;99780.50;;;13.90;43.31
44453;BME280;30155;52.164;21.236;2023-04-23T19:52:16;99780.98;;;13.79;43.46
44453;BME280;30155;52.164;21.236;2023-04-23T19:57:09;99781.65;;;13.64;43.71
44453;BME280;30155;52.164;21.236;2023-04-23T20:02:02;99783.51;;;13.53;43.99
44453;BME280;30155;52.164;21.236;2023-04-23T20:06:55;99779.30;;;13.38;44.09
44453;BME280;30155;52.164;21.236;2023-04-23T20:11:48;99778.13;;;13.29;44.54
44453;BME280;30155;52.164;21.236;2023-04-23T20:16:40;99773.17;;;13.20;44.83
44453;BME280;30155;52.164;21.236;2023-04-23T20:21:33;99773.25;;;13.11;45.21
44453;BME280;30155;52.164;21.236;2023-04-23T20:26:27;99775.61;;;12.98;45.45
44453;BME280;30155;52.164;21.236;2023-04-23T20:31:20;99772.39;;;12.87;45.51
44453;BME280;30155;52.164;21.236;2023-04-23T20:36:12;99769.00;;;12.76;45.64
44453;BME280;30155;52.164;21.236;2023-04-23T20:41:06;99769.26;;;12.64;46.41
44453;BME280;30155;52.164;21.236;2023-04-23T20:46:01;99767.60;;;12.50;47.35
44453;BME280;30155;52.164;21.236;2023-04-23T20:50:54;99766.99;;;12.36;48.27
44453;BME280;30155;52.164;21.236;2023-04-23T20:55:47;99770.36;;;12.22;48.46
44453;BME280;30155;52.164;21.236;2023-04-23T21:00:40;99773.17;;;12.15;48.24
44453;BME280;30155;52.164;21.236;2023-04-23T21:05:33;99767.80;;;12.10;48.12
44453;BME280;30155;52.164;21.236;2023-04-23T21:10:25;99767.50;;;12.02;48.37
44453;BME280;30155;52.164;21.236;2023-04-23T21:15:19;99763.70;;;11.95;48.84
44453;BME280;30155;52.164;21.236;2023-04-23T21:20:11;99761.98;;;11.84;49.14
44453;BME280;30155;52.164;21.236;2023-04-23T21:25:05;99757.31;;;11.77;49.54
44453;BME280;30155;52.164;21.236;2023-04-23T21:29:59;99752.65;;;11.68;49.81
44453;BME280;30155;52.164;21.236;2023-04-23T21:34:52;99748.68;;;11.61;50.28
44453;BME280;30155;52.164;21.236;2023-04-23T21:39:44;99754.41;;;11.53;50.61
44453;BME280;30155;52.164;21.236;2023-04-23T21:44:38;99758.42;;;11.49;50.74
44453;BME280;30155;52.164;21.236;2023-04-23T21:49:31;99758.77;;;11.45;50.92
44453;BME280;30155;52.164;21.236;2023-04-23T21:54:24;99761.57;;;11.36;51.24
44453;BME280;30155;52.164;21.236;2023-04-23T21:59:16;99757.60;;;11.26;51.53
44453;BME280;30155;52.164;21.236;2023-04-23T22:04:10;99755.52;;;11.22;51.70
44453;BME280;30155;52.164;21.236;2023-04-23T22:09:04;99753.59;;;11.23;51.45
44453;BME280;30155;52.164;21.236;2023-04-23T22:13:57;99760.20;;;11.22;51.93
44453;BME280;30155;52.164;21.236;2023-04-23T22:18:50;99774.77;;;11.16;51.88
44453;BME280;30155;52.164;21.236;2023-04-23T22:23:44;99788.30;;;11.12;52.09
44453;BME280;30155;52.164;21.236;2023-04-23T22:28:36;99787.09;;;11.12;52.03
44453;BME280;30155;52.164;21.236;2023-04-23T22:33:29;99784.14;;;11.05;52.11
44453;BME280;30155;52.164;21.236;2023-04-23T22:38:22;99782.58;;;11.00;51.95
44453;BME280;30155;52.164;21.236;2023-04-23T22:43:15;99770.27;;;10.92;51.97
44453;BME280;30155;52.164;21.236;2023-04-23T22:48:08;99764.89;;;10.87;51.98
44453;BME280;30155;52.164;21.236;2023-04-23T22:53:01;99764.37;;;10.79;51.98
44453;BME280;30155;52.164;21.236;2023-04-23T22:57:54;99758.29;;;10.71;52.20
44453;BME280;30155;52.164;21.236;2023-04-23T23:02:47;99759.66;;;10.62;52.52
44453;BME280;30155;52.164;21.236;2023-04-23T23:07:40;99756.52;;;10.53;52.68
44453;BME280;30155;52.164;21.236;2023-04-23T23:12:34;99750.11;;;10.51;52.83
44453;BME280;30155;52.164;21.236;2023-04-23T23:17:26;99740.91;;;10.46;52.96
44453;BME280;30155;52.164;21.236;2023-04-23T23:22:20;99734.33;;;10.36;53.13
44453;BME280;30155;52.164;21.236;2023-04-23T23:27:12;99729.95;;;10.28;53.27
44453;BME280;30155;52.164;21.236;2023-04-23T23:32:05;99724.38;;;10.22;53.19
44453;BME280;30155;52.164;21.236;2023-04-23T23:36:58;99722.12;;;10.16;53.39
44453;BME280;30155;52.164;21.236;2023-04-23T23:41:50;99720.02;;;10.09;53.53
44453;BME280;30155;52.164;21.236;2023-04-23T23:46:43;99715.34;;;10.04;53.70
44453;BME280;30155;52.164;21.236;2023-04-23T23:51:36;99711.69;;;10.01;54.11
44453;BME280;30155;52.164;21.236;2023-04-23T23:56:29;99705.08;;;9.94;54.20
